Terminal Aerodrome Forecast
Issued by NWS

Home | Current Version | Previous Version | Text Only | Print | Product List | Glossary On
Versions: 1 2 3 4 5 6 7 8 9 10 11 12 13 14 15 16 17 18 19 20
000
FTUS43 KAPX 251100
TAFMBL
TAF
KMBL 251120Z 2512/2612 VRB03KT P6SM BKN250
     FM251500 23008KT P6SM SCT050 BKN150
     FM251800 23009G17KT P6SM SCT050 BKN090
     FM260100 VRB03KT P6SM VCSH SCT040 BKN080
      AMD LTD TO CLD VIS AND WIND=

USA.gov is the U.S. government's official web portal to all federal, state and local government web resources and services.